createdAt,value
2018-02-22T00:01:17.489Z,99.90
2018-02-22T00:03:43.857Z,99.90
2018-02-22T00:06:10.297Z,99.90
2018-02-22T00:08:37.447Z,99.90
2018-02-22T00:11:04.383Z,99.90
2018-02-22T00:13:30.815Z,99.90
2018-02-22T00:15:57.253Z,99.90
2018-02-22T00:18:23.637Z,99.90
2018-02-22T00:20:49.996Z,99.90
2018-02-22T00:23:16.361Z,99.90
2018-02-22T00:25:42.720Z,99.90
2018-02-22T00:28:09.153Z,99.90
2018-02-22T00:30:35.551Z,99.90
2018-02-22T00:33:02.813Z,99.90
2018-02-22T00:35:29.249Z,99.90
2018-02-22T00:37:55.645Z,99.90
2018-02-22T00:40:22.017Z,99.90
2018-02-22T00:42:48.411Z,99.90
2018-02-22T00:45:14.794Z,99.90
2018-02-22T00:47:41.173Z,99.90
2018-02-22T00:50:07.583Z,99.90
2018-02-22T00:52:33.968Z,99.90
2018-02-22T00:55:00.369Z,99.90
2018-02-22T00:57:26.760Z,99.90
2018-02-22T00:59:54.205Z,99.90
2018-02-22T01:02:20.589Z,99.90
2018-02-22T01:04:52.898Z,99.90
2018-02-22T01:07:19.325Z,99.90
2018-02-22T01:09:45.764Z,99.90
2018-02-22T01:12:12.181Z,99.90
2018-02-22T01:14:38.576Z,99.90
2018-02-22T01:17:05.320Z,99.90
2018-02-22T01:19:31.736Z,99.90
2018-02-22T01:21:58.896Z,99.90
2018-02-22T01:24:26.012Z,99.90
2018-02-22T01:26:53.064Z,99.90
2018-02-22T01:29:19.477Z,99.90
2018-02-22T01:31:45.876Z,99.90
2018-02-22T01:34:12.401Z,99.90
2018-02-22T01:36:38.829Z,99.90
2018-02-22T01:39:05.510Z,99.90
2018-02-22T01:41:31.895Z,99.90
2018-02-22T01:43:58.364Z,99.90
2018-02-22T01:46:24.776Z,99.90
2018-02-22T01:48:51.137Z,99.90
2018-02-22T01:51:17.586Z,99.90
2018-02-22T01:53:43.992Z,99.90
2018-02-22T01:56:10.361Z,99.90
2018-02-22T01:58:37.493Z,99.90
2018-02-22T02:01:04.993Z,99.90
2018-02-22T02:03:31.428Z,99.90
2018-02-22T02:05:57.829Z,99.90
2018-02-22T02:08:24.221Z,99.90
2018-02-22T02:10:51.304Z,99.90
2018-02-22T02:13:17.718Z,99.90
2018-02-22T02:15:44.835Z,99.90
2018-02-22T02:18:11.201Z,99.90
2018-02-22T02:20:37.605Z,99.90
2018-02-22T02:23:04.496Z,99.90
2018-02-22T02:25:30.829Z,99.90
2018-02-22T02:28:03.736Z,99.90
2018-02-22T02:30:30.136Z,99.90
2018-02-22T02:32:56.497Z,99.90
2018-02-22T02:35:22.854Z,99.90
2018-02-22T02:37:49.216Z,99.90
2018-02-22T02:40:16.408Z,99.90
2018-02-22T02:42:43.545Z,99.90
2018-02-22T02:45:09.931Z,99.90
2018-02-22T02:47:36.282Z,99.90
2018-02-22T02:50:04.049Z,99.90
2018-02-22T02:52:30.433Z,99.90
2018-02-22T02:54:56.800Z,99.90
2018-02-22T02:57:23.157Z,99.90
2018-02-22T02:59:49.571Z,99.90
2018-02-22T03:02:15.917Z,99.90
2018-02-22T03:04:42.254Z,99.90
2018-02-22T03:07:08.616Z,99.90
2018-02-22T03:09:34.945Z,99.90
2018-02-22T03:12:01.283Z,99.90
2018-02-22T03:14:27.632Z,99.90
2018-02-22T03:16:53.983Z,99.90
2018-02-22T03:19:20.439Z,99.90
2018-02-22T03:21:46.796Z,99.90
2018-02-22T03:24:13.163Z,99.90
2018-02-22T03:26:40.247Z,99.90
2018-02-22T03:29:06.588Z,99.90
2018-02-22T03:31:32.971Z,99.90
2018-02-22T03:34:00.059Z,99.90
2018-02-22T03:36:26.445Z,99.90
2018-02-22T03:38:52.798Z,99.90
2018-02-22T03:41:19.172Z,99.90
2018-02-22T03:43:46.269Z,99.90
2018-02-22T03:46:12.613Z,99.90
2018-02-22T03:48:39.025Z,99.90
2018-02-22T03:51:06.465Z,99.90
2018-02-22T03:53:32.771Z,99.90
2018-02-22T03:55:59.134Z,99.90
2018-02-22T03:58:25.471Z,99.90
2018-02-22T04:00:51.797Z,99.90
2018-02-22T04:03:18.204Z,99.90
2018-02-22T04:05:45.300Z,99.90
2018-02-22T04:08:11.664Z,99.90
2018-02-22T04:10:38.032Z,99.90
2018-02-22T04:13:04.967Z,99.90
2018-02-22T04:15:31.338Z,99.90
2018-02-22T04:17:57.658Z,99.90
2018-02-22T04:20:24.882Z,99.90
2018-02-22T04:22:51.264Z,99.90
2018-02-22T04:25:17.627Z,99.90
2018-02-22T04:27:44.937Z,99.90
2018-02-22T04:30:12.047Z,99.90
2018-02-22T04:32:38.361Z,99.90
2018-02-22T04:35:05.326Z,99.90
2018-02-22T04:37:31.680Z,99.90
2018-02-22T04:39:58.038Z,99.90
2018-02-22T04:42:24.374Z,99.90
2018-02-22T04:44:51.547Z,99.90
2018-02-22T04:47:17.932Z,99.90
2018-02-22T04:49:44.275Z,99.90
2018-02-22T04:52:10.603Z,99.90
2018-02-22T04:54:36.955Z,99.90
2018-02-22T04:57:03.844Z,99.90
2018-02-22T04:59:30.251Z,99.90
2018-02-22T05:01:57.430Z,99.90
2018-02-22T05:04:23.741Z,99.90
2018-02-22T05:06:50.129Z,99.90
2018-02-22T05:09:16.755Z,99.90
2018-02-22T05:11:43.151Z,99.90
2018-02-22T05:14:09.540Z,99.90
2018-02-22T05:16:35.969Z,99.90
2018-02-22T05:19:02.773Z,99.90
2018-02-22T05:21:29.251Z,99.90
2018-02-22T05:23:55.695Z,99.90
2018-02-22T05:26:22.109Z,99.90
2018-02-22T05:28:48.466Z,99.90
2018-02-22T05:31:14.995Z,99.90
2018-02-22T05:33:41.655Z,99.90
2018-02-22T05:36:08.019Z,99.90
2018-02-22T05:38:41.543Z,99.90
2018-02-22T05:41:08.047Z,99.90
2018-02-22T05:43:34.451Z,99.90
2018-02-22T05:46:00.846Z,99.90
2018-02-22T05:48:27.204Z,99.90
2018-02-22T05:50:54.332Z,99.90
2018-02-22T05:53:20.700Z,99.90
2018-02-22T05:55:47.051Z,99.90
2018-02-22T05:58:14.931Z,99.90
2018-02-22T06:00:41.356Z,99.90
2018-02-22T06:03:07.876Z,99.90
2018-02-22T06:05:34.340Z,99.90
2018-02-22T06:08:00.797Z,99.90
2018-02-22T06:10:28.076Z,99.90
2018-02-22T06:12:54.633Z,99.90
2018-02-22T06:15:21.236Z,99.90
2018-02-22T06:17:47.631Z,99.90
2018-02-22T06:20:14.787Z,99.90
2018-02-22T06:22:41.131Z,99.90
2018-02-22T06:25:07.602Z,99.90
2018-02-22T06:27:35.628Z,99.90
2018-02-22T06:30:02.383Z,99.90
2018-02-22T06:32:28.900Z,99.90
2018-02-22T06:34:55.343Z,99.90
2018-02-22T06:37:21.748Z,99.90
2018-02-22T06:39:48.167Z,99.90
2018-02-22T06:42:15.386Z,99.90
2018-02-22T06:44:41.844Z,99.90
2018-02-22T06:47:08.262Z,99.90
2018-02-22T06:49:35.392Z,99.90
2018-02-22T06:52:01.867Z,99.90
2018-02-22T06:54:28.386Z,99.90
2018-02-22T06:56:54.913Z,99.90
2018-02-22T06:59:22.206Z,99.90
2018-02-22T07:01:48.936Z,99.90
2018-02-22T07:04:16.135Z,99.90
2018-02-22T07:06:42.688Z,99.90
2018-02-22T07:09:09.207Z,99.90
2018-02-22T07:11:35.759Z,99.90
2018-02-22T07:14:02.400Z,99.90
2018-02-22T07:16:28.814Z,99.90
2018-02-22T07:18:55.159Z,99.90
2018-02-22T07:21:21.798Z,99.90
2018-02-22T07:23:49.011Z,99.90
2018-02-22T07:26:16.205Z,99.90
2018-02-22T07:28:43.403Z,99.90
2018-02-22T07:31:09.815Z,99.90
2018-02-22T07:33:36.355Z,99.90
2018-02-22T07:36:03.481Z,99.90
2018-02-22T07:38:29.991Z,99.90
2018-02-22T07:40:56.408Z,99.90
2018-02-22T07:43:23.557Z,99.90
2018-02-22T07:45:50.091Z,99.90
2018-02-22T07:48:16.601Z,99.90
2018-02-22T07:50:43.011Z,99.90
2018-02-22T07:53:12.045Z,99.90
2018-02-22T07:55:38.456Z,99.90
2018-02-22T07:58:05.497Z,99.90
2018-02-22T08:00:32.489Z,99.90
2018-02-22T08:02:59.751Z,99.90
2018-02-22T08:05:27.016Z,99.90
2018-02-22T08:07:54.644Z,99.90
2018-02-22T08:10:21.119Z,99.90
2018-02-22T08:12:47.714Z,99.90
2018-02-22T08:15:14.222Z,99.90
2018-02-22T08:17:40.754Z,99.90
2018-02-22T08:20:07.820Z,99.90
2018-02-22T08:22:34.344Z,99.90
2018-02-22T08:25:00.808Z,99.90
2018-02-22T08:27:27.373Z,99.90
2018-02-22T08:29:55.214Z,99.90
2018-02-22T08:32:21.624Z,99.90
2018-02-22T08:34:48.079Z,99.90
2018-02-22T08:37:15.511Z,99.90
2018-02-22T08:39:42.810Z,99.90
2018-02-22T08:42:09.483Z,99.90
2018-02-22T08:44:36.123Z,99.90
2018-02-22T08:47:03.073Z,99.90
2018-02-22T08:49:30.431Z,99.90
2018-02-22T08:51:56.898Z,99.90
2018-02-22T08:54:23.519Z,99.90
2018-02-22T08:56:50.122Z,99.90
2018-02-22T08:59:16.530Z,99.90
2018-02-22T09:01:43.294Z,99.90
2018-02-22T09:04:10.431Z,99.90
2018-02-22T09:06:37.668Z,99.90
2018-02-22T09:09:04.735Z,99.90
2018-02-22T09:11:31.168Z,99.90
2018-02-22T09:13:57.667Z,99.90
2018-02-22T09:16:24.163Z,99.90
2018-02-22T09:18:51.451Z,99.90
2018-02-22T09:21:17.959Z,99.90
2018-02-22T09:23:44.494Z,99.90
2018-02-22T09:26:12.401Z,99.90
2018-02-22T09:28:38.855Z,99.90
2018-02-22T09:31:06.576Z,99.90
2018-02-22T09:33:33.061Z,99.90
2018-02-22T09:36:00.324Z,99.90
2018-02-22T09:38:26.889Z,99.90
2018-02-22T09:40:53.343Z,99.90
2018-02-22T09:43:20.609Z,99.90
2018-02-22T09:45:47.842Z,99.90
2018-02-22T09:48:14.294Z,99.90
2018-02-22T09:50:42.065Z,99.90
2018-02-22T09:53:08.614Z,99.90
2018-02-22T09:55:35.999Z,98.50
2018-02-22T09:58:03.109Z,98.80
2018-02-22T10:00:29.788Z,99.20
2018-02-22T10:02:56.193Z,93.80
2018-02-22T10:05:22.637Z,93.30
2018-02-22T10:07:49.087Z,88.20
2018-02-22T10:10:16.392Z,90.80
2018-02-22T10:12:42.850Z,90.70
2018-02-22T10:18:08.746Z,91.40
2018-02-22T10:20:35.164Z,92.70
2018-02-22T10:23:01.766Z,82.80
2018-02-22T10:25:30.483Z,89.60
2018-02-22T10:27:57.736Z,90.10
2018-02-22T10:30:24.227Z,90.10
2018-02-22T10:32:50.693Z,91.00
2018-02-22T10:35:17.201Z,91.60
2018-02-22T10:37:44.530Z,86.60
2018-02-22T10:40:10.981Z,86.60
2018-02-22T10:42:37.444Z,90.10
2018-02-22T10:45:04.412Z,83.50
2018-02-22T10:47:30.938Z,82.80
2018-02-22T10:49:58.102Z,70.50
2018-02-22T10:52:24.584Z,70.20
2018-02-22T10:54:51.030Z,71.50
2018-02-22T10:57:17.470Z,81.20
2018-02-22T10:59:44.058Z,63.30
2018-02-22T11:02:16.529Z,71.30
2018-02-22T11:04:43.011Z,65.70
2018-02-22T11:07:12.476Z,65.40
2018-02-22T11:09:39.741Z,79.70
2018-02-22T11:12:06.992Z,76.10
2018-02-22T11:14:33.474Z,76.30
2018-02-22T11:16:59.889Z,80.10
2018-02-22T11:19:26.316Z,80.10
2018-02-22T11:21:52.845Z,79.40
2018-02-22T11:24:19.370Z,76.60
2018-02-22T11:26:46.136Z,86.60
2018-02-22T11:29:12.736Z,81.60
2018-02-22T11:31:39.976Z,90.90
2018-02-22T11:34:06.450Z,90.90
2018-02-22T11:36:32.980Z,87.70
2018-02-22T11:39:00.295Z,91.50
2018-02-22T11:41:27.504Z,94.00
2018-02-22T11:43:54.021Z,94.00
2018-02-22T11:46:20.483Z,90.20
2018-02-22T11:48:46.992Z,83.80
2018-02-22T11:51:13.624Z,92.00
2018-02-22T11:53:40.907Z,79.50
2018-02-22T11:56:07.935Z,79.60
2018-02-22T11:58:34.590Z,89.00
2018-02-22T12:01:01.210Z,75.10
2018-02-22T12:03:27.806Z,62.80
2018-02-22T12:05:55.211Z,77.30
2018-02-22T12:08:22.341Z,73.20
2018-02-22T12:10:50.433Z,77.50
2018-02-22T12:13:17.126Z,77.50
2018-02-22T12:15:43.531Z,69.20
2018-02-22T12:18:09.990Z,67.20
2018-02-22T12:20:36.531Z,71.60
2018-02-22T12:23:03.311Z,71.40
2018-02-22T12:25:29.752Z,65.00
2018-02-22T12:27:56.172Z,61.70
2018-02-22T12:30:23.397Z,72.50
2018-02-22T12:32:49.992Z,72.50
2018-02-22T12:35:16.359Z,63.40
2018-02-22T12:37:42.914Z,64.80
2018-02-22T12:40:09.373Z,64.60
2018-02-22T12:42:36.507Z,55.90
2018-02-22T12:45:03.850Z,56.40
2018-02-22T12:47:30.278Z,56.40
2018-02-22T12:49:56.743Z,54.40
2018-02-22T12:52:24.076Z,55.20
2018-02-22T12:54:50.662Z,58.10
2018-02-22T12:57:17.242Z,49.60
2018-02-22T12:59:44.236Z,50.60
2018-02-22T13:02:10.780Z,51.90
2018-02-22T13:04:37.760Z,51.50
2018-02-22T13:07:04.859Z,49.10
2018-02-22T13:09:31.907Z,52.10
2018-02-22T13:11:58.532Z,49.60
2018-02-22T13:14:25.064Z,49.30
2018-02-22T13:16:52.266Z,52.80
2018-02-22T13:19:19.711Z,55.30
2018-02-22T13:21:46.921Z,55.30
2018-02-22T13:24:13.724Z,53.00
2018-02-22T13:26:40.713Z,54.20
2018-02-22T13:29:08.111Z,51.30
2018-02-22T13:31:36.244Z,51.90
2018-02-22T13:34:15.939Z,53.50
2018-02-22T13:36:43.612Z,54.70
2018-02-22T13:39:10.960Z,48.80
2018-02-22T13:41:38.120Z,48.20
2018-02-22T13:44:16.887Z,49.40
2018-02-22T13:46:43.966Z,50.40
2018-02-22T13:49:22.900Z,52.00
2018-02-22T13:51:49.462Z,48.90
2018-02-22T13:54:15.955Z,49.70
2018-02-22T13:56:54.665Z,49.20
2018-02-22T13:59:21.219Z,47.30
2018-02-22T14:04:53.191Z,49.50
2018-02-22T14:07:20.425Z,53.70
2018-02-22T14:09:47.269Z,52.50
2018-02-22T14:12:15.919Z,52.50
2018-02-22T14:14:44.000Z,53.30
2018-02-22T14:17:12.500Z,52.20
2018-02-22T14:19:40.943Z,54.60
2018-02-22T14:22:08.137Z,54.60
2018-02-22T14:24:35.992Z,54.60
2018-02-22T14:27:04.304Z,57.10
2018-02-22T14:29:31.937Z,53.40
2018-02-22T14:32:02.851Z,53.70
2018-02-22T14:34:32.593Z,53.60
2018-02-22T14:37:00.024Z,54.60
2018-02-22T14:39:28.103Z,54.50
2018-02-22T14:41:55.370Z,54.10
2018-02-22T14:44:22.466Z,54.10
2018-02-22T14:46:50.361Z,56.20
2018-02-22T14:49:16.970Z,53.40
2018-02-22T14:51:44.313Z,55.40
2018-02-22T14:54:12.851Z,55.40
2018-02-22T14:56:41.242Z,54.40
2018-02-22T14:59:11.420Z,57.20
2018-02-22T15:01:40.753Z,61.50
2018-02-22T15:04:13.060Z,62.70
2018-02-22T15:06:40.879Z,62.70
2018-02-22T15:09:10.794Z,65.60
2018-02-22T15:11:39.232Z,69.30
2018-02-22T15:14:08.422Z,67.80
2018-02-22T15:16:39.030Z,72.70
2018-02-22T15:19:08.168Z,72.80
2018-02-22T15:21:36.523Z,70.40
2018-02-22T15:24:05.503Z,72.10
2018-02-22T15:26:34.172Z,72.60
2018-02-22T15:29:01.233Z,78.50
2018-02-22T15:31:30.075Z,84.70
2018-02-22T15:33:56.890Z,80.90
2018-02-22T15:36:23.625Z,81.70
2018-02-22T15:38:52.447Z,82.50
2018-02-22T15:41:20.026Z,83.30
2018-02-22T15:43:55.452Z,87.90
2018-02-22T15:46:22.123Z,90.10
2018-02-22T15:48:50.455Z,87.70
2018-02-22T15:51:21.141Z,91.30
2018-02-22T15:53:50.109Z,93.80
2018-02-22T15:56:16.939Z,93.80
2018-02-22T15:58:44.818Z,97.60
2018-02-22T16:01:14.947Z,99.00
2018-02-22T16:03:42.581Z,99.00
2018-02-22T16:06:12.809Z,99.90
2018-02-22T16:08:40.196Z,99.90
2018-02-22T16:11:07.496Z,99.90
2018-02-22T16:13:34.890Z,99.90
2018-02-22T16:16:01.510Z,99.90
2018-02-22T16:18:28.082Z,99.90
2018-02-22T16:20:54.911Z,99.90
2018-02-22T16:23:21.450Z,99.90
2018-02-22T16:25:48.219Z,99.90
2018-02-22T16:28:14.751Z,99.90
2018-02-22T16:30:41.427Z,99.90
2018-02-22T16:33:10.258Z,99.90
2018-02-22T16:35:37.435Z,99.90
2018-02-22T16:38:04.488Z,99.90
2018-02-22T16:40:32.820Z,99.90
2018-02-22T16:43:00.252Z,99.90
2018-02-22T16:45:27.589Z,99.90
2018-02-22T16:47:54.911Z,99.90
2018-02-22T16:50:22.103Z,99.90
2018-02-22T16:52:48.616Z,99.90
2018-02-22T16:55:15.379Z,99.90
2018-02-22T16:57:42.603Z,99.90
2018-02-22T17:00:09.868Z,99.90
2018-02-22T17:02:38.392Z,99.90
2018-02-22T17:05:05.516Z,99.90
2018-02-22T17:07:33.099Z,99.90
2018-02-22T17:09:59.748Z,99.90
2018-02-22T17:12:27.009Z,99.90
2018-02-22T17:14:53.640Z,99.90
2018-02-22T17:17:22.614Z,99.90
2018-02-22T17:19:49.212Z,99.90
2018-02-22T17:22:16.883Z,99.90
2018-02-22T17:24:44.337Z,99.90
2018-02-22T17:29:56.325Z,99.90
2018-02-22T17:32:22.921Z,99.90
2018-02-22T17:34:51.495Z,99.90
2018-02-22T17:37:24.519Z,99.90
2018-02-22T17:39:57.030Z,99.90
2018-02-22T17:42:23.490Z,99.90
2018-02-22T17:44:49.991Z,99.90
2018-02-22T17:47:16.496Z,99.90
2018-02-22T17:49:42.915Z,99.90
2018-02-22T17:52:09.446Z,99.90
2018-02-22T17:54:36.647Z,99.90
2018-02-22T17:57:03.640Z,99.90
2018-02-22T17:59:30.129Z,99.90
2018-02-22T18:01:57.200Z,99.90
2018-02-22T18:04:23.801Z,99.90
2018-02-22T18:06:50.430Z,99.90
2018-02-22T18:09:16.982Z,99.90
2018-02-22T18:11:43.583Z,99.90
2018-02-22T18:14:10.088Z,99.90
2018-02-22T18:16:38.026Z,99.90
2018-02-22T18:19:05.018Z,99.90
2018-02-22T18:21:32.270Z,99.90
2018-02-22T18:23:58.724Z,99.90
2018-02-22T18:26:25.152Z,99.90
2018-02-22T18:28:51.744Z,99.90
2018-02-22T18:31:19.589Z,99.90
2018-02-22T18:33:46.119Z,99.90
2018-02-22T18:36:12.609Z,99.90
2018-02-22T18:38:45.927Z,99.90
2018-02-22T18:41:13.138Z,99.90
2018-02-22T18:43:40.477Z,99.90
2018-02-22T18:46:07.470Z,99.90
2018-02-22T18:48:33.908Z,99.90
2018-02-22T18:51:01.213Z,99.90
2018-02-22T18:53:28.182Z,99.90
2018-02-22T18:55:54.603Z,99.90
2018-02-22T18:58:21.022Z,99.90
2018-02-22T19:00:47.430Z,99.90
2018-02-22T19:03:14.567Z,99.90
2018-02-22T19:05:41.029Z,99.90
2018-02-22T19:08:07.980Z,99.90
2018-02-22T19:10:34.446Z,99.90
2018-02-22T19:13:00.937Z,99.90
2018-02-22T19:15:28.123Z,99.90
2018-02-22T19:17:54.556Z,99.90
2018-02-22T19:20:20.978Z,99.90
2018-02-22T19:22:47.422Z,99.90
2018-02-22T19:25:14.606Z,99.90
2018-02-22T19:27:41.887Z,99.90
2018-02-22T19:30:08.349Z,99.90
2018-02-22T19:32:34.935Z,99.90
2018-02-22T19:35:01.337Z,99.90
2018-02-22T19:37:27.879Z,99.90
2018-02-22T19:39:54.365Z,99.90
2018-02-22T19:42:20.799Z,99.90
2018-02-22T19:44:47.230Z,99.90
2018-02-22T19:47:13.654Z,99.90
2018-02-22T19:49:40.869Z,99.90
2018-02-22T19:52:07.504Z,99.90
2018-02-22T19:54:34.020Z,99.90
2018-02-22T19:57:01.225Z,99.90
2018-02-22T19:59:27.705Z,99.90
2018-02-22T20:01:54.088Z,99.90
2018-02-22T20:04:20.590Z,99.90
2018-02-22T20:06:48.587Z,99.90
2018-02-22T20:09:15.108Z,99.90
2018-02-22T20:11:42.309Z,99.90
2018-02-22T20:14:09.731Z,99.90
2018-02-22T20:16:36.308Z,99.90
2018-02-22T20:19:03.239Z,99.90
2018-02-22T20:21:29.672Z,99.90
2018-02-22T20:23:56.166Z,99.90
2018-02-22T20:26:23.326Z,99.90
2018-02-22T20:28:49.758Z,99.90
2018-02-22T20:31:16.947Z,99.90
2018-02-22T20:33:43.473Z,99.90
2018-02-22T20:36:10.014Z,99.90
2018-02-22T20:38:36.744Z,99.90
2018-02-22T20:41:03.598Z,99.90
2018-02-22T20:43:30.118Z,99.90
2018-02-22T20:45:56.713Z,99.90
2018-02-22T20:48:23.939Z,99.90
2018-02-22T20:50:50.603Z,99.90
2018-02-22T20:53:17.215Z,99.90
2018-02-22T20:55:44.546Z,99.90
2018-02-22T20:58:11.821Z,99.90
2018-02-22T21:00:39.942Z,99.90
2018-02-22T21:03:06.507Z,99.90
2018-02-22T21:05:32.949Z,99.90
2018-02-22T21:07:59.463Z,99.90
2018-02-22T21:10:25.946Z,99.90
2018-02-22T21:12:52.391Z,99.90
2018-02-22T21:15:18.902Z,99.90
2018-02-22T21:17:45.353Z,99.90
2018-02-22T21:20:11.978Z,99.90
2018-02-22T21:22:39.229Z,99.90
2018-02-22T21:25:05.795Z,99.90
2018-02-22T21:27:32.237Z,99.90
2018-02-22T21:29:59.394Z,99.90
2018-02-22T21:32:26.574Z,99.90
2018-02-22T21:34:53.073Z,99.90
2018-02-22T21:37:19.469Z,99.90
2018-02-22T21:39:45.937Z,99.90
2018-02-22T21:42:12.392Z,99.90
2018-02-22T21:44:39.082Z,99.90
2018-02-22T21:47:05.892Z,99.90
2018-02-22T21:49:32.361Z,99.90
2018-02-22T21:51:58.826Z,99.90
2018-02-22T21:54:26.095Z,99.90
2018-02-22T21:56:53.535Z,99.90
2018-02-22T21:59:20.095Z,99.90
2018-02-22T22:01:46.646Z,99.90
2018-02-22T22:04:13.151Z,99.90
2018-02-22T22:06:39.623Z,99.90
2018-02-22T22:09:06.367Z,99.90
2018-02-22T22:11:32.798Z,99.90
2018-02-22T22:13:59.204Z,99.90
2018-02-22T22:16:25.662Z,99.90
2018-02-22T22:18:52.131Z,99.90
2018-02-22T22:21:18.571Z,99.90
2018-02-22T22:23:45.932Z,99.90
2018-02-22T22:26:12.398Z,99.90
2018-02-22T22:28:38.814Z,99.90
2018-02-22T22:31:05.699Z,99.90
2018-02-22T22:33:32.161Z,99.90
2018-02-22T22:35:58.632Z,99.90
2018-02-22T22:38:25.863Z,99.90
2018-02-22T22:40:52.294Z,99.90
2018-02-22T22:43:18.780Z,99.90
2018-02-22T22:45:45.915Z,99.90
2018-02-22T22:48:12.477Z,99.90
2018-02-22T22:50:39.686Z,99.90
2018-02-22T22:53:06.310Z,99.90
2018-02-22T22:55:33.488Z,99.90
2018-02-22T22:57:59.962Z,99.90
2018-02-22T23:00:26.407Z,99.90
2018-02-22T23:02:52.843Z,99.90
2018-02-22T23:05:19.223Z,99.90
2018-02-22T23:07:46.134Z,99.90
2018-02-22T23:10:12.522Z,99.90
2018-02-22T23:12:39.779Z,99.90
2018-02-22T23:15:07.040Z,99.90
2018-02-22T23:17:34.232Z,99.90
2018-02-22T23:20:01.424Z,99.90
2018-02-22T23:22:27.888Z,99.90
2018-02-22T23:24:54.335Z,99.90
2018-02-22T23:27:20.716Z,99.90
2018-02-22T23:29:48.265Z,99.90
2018-02-22T23:32:14.675Z,99.90
2018-02-22T23:34:42.587Z,99.90
2018-02-22T23:37:09.058Z,99.90
2018-02-22T23:39:37.170Z,99.90
2018-02-22T23:45:03.911Z,99.90
2018-02-22T23:47:30.363Z,99.90
2018-02-22T23:49:56.814Z,99.90
2018-02-22T23:52:24.747Z,99.90
2018-02-22T23:54:51.253Z,99.90
2018-02-22T23:57:18.433Z,99.90
2018-02-22T23:59:45.619Z,99.90
